Mantorville, Minnesota
Current Conditions -  °F | °C
As of 10:54 PM on Saturday 22 Nov 2014 (Local Time) from KTOB Reporting Station
Moderate Fog Moderate Fog  
Wind Chill:   Ceiling: 100
Heat Index:   Visibility: 0.25mi
Dew Point:   Wind: 21mph
Humidity: 100%   Direction: 180°S
Pressure: 29.55"   Gusts: NA
Location:  44.07°N, 92.76°W
Report Text: KTOB 230454Z AUTO 18018KT 1/4SM FG OVC001 08/08 A2955 RMK AO2
Loading
Personal Weather Stations






























Interactive Weather Map New forecast layout! Learn more

10-Day Weather Forecast

Advertisements
Track Severe Weather on mobile